sensor_id;sensor_type;location;lat;lon;timestamp;pressure;altitude;pressure_sealevel;temperature;humidity
60725;BME280;59881;36.722;-4.462;2023-06-22T01:18:46;100801.97;;;21.61;50.79
60725;BME280;59881;36.722;-4.462;2023-06-22T01:21:16;100594.38;;;20.11;50.66
60725;BME280;59881;36.722;-4.462;2023-06-22T01:24:08;100800.94;;;21.62;50.60
60725;BME280;59881;36.722;-4.462;2023-06-22T01:26:42;100803.63;;;21.62;50.60
60725;BME280;59881;36.722;-4.462;2023-06-22T01:29:11;100799.78;;;21.64;50.65
60725;BME280;59881;36.722;-4.462;2023-06-22T01:31:39;100646.91;;;20.69;50.99
60725;BME280;59881;36.722;-4.462;2023-06-22T01:34:07;100840.50;;;21.60;50.64
60725;BME280;59881;36.722;-4.462;2023-06-22T01:36:34;100879.88;;;21.59;50.83
60725;BME280;59881;36.722;-4.462;2023-06-22T01:39:02;100563.78;;;19.89;50.81
60725;BME280;59881;36.722;-4.462;2023-06-22T01:41:30;100474.97;;;19.19;50.91
60725;BME280;59881;36.722;-4.462;2023-06-22T01:43:57;100238.53;;;18.17;50.76
60725;BME280;59881;36.722;-4.462;2023-06-22T01:46:23;100521.69;;;19.91;50.54
60725;BME280;59881;36.722;-4.462;2023-06-22T01:48:50;100161.69;;;17.53;50.67
60725;BME280;59881;36.722;-4.462;2023-06-22T01:51:16;100804.47;;;21.62;50.77
60725;BME280;59881;36.722;-4.462;2023-06-22T01:53:42;100804.47;;;21.62;50.64
60725;BME280;59881;36.722;-4.462;2023-06-22T01:56:08;100247.03;;;18.12;50.43
60725;BME280;59881;36.722;-4.462;2023-06-22T01:58:37;100618.44;;;20.52;50.41
60725;BME280;59881;36.722;-4.462;2023-06-22T02:01:10;100324.66;;;18.68;50.45
60725;BME280;59881;36.722;-4.462;2023-06-22T02:03:43;100843.00;;;21.61;50.87
60725;BME280;59881;36.722;-4.462;2023-06-22T02:06:24;100803.13;;;21.58;50.82
60725;BME280;59881;36.722;-4.462;2023-06-22T02:08:59;100754.44;;;21.22;50.88
60725;BME280;59881;36.722;-4.462;2023-06-22T02:11:27;100794.31;;;21.41;50.89
60725;BME280;59881;36.722;-4.462;2023-06-22T02:13:55;100808.34;;;21.52;51.32
60725;BME280;59881;36.722;-4.462;2023-06-22T02:16:23;100812.19;;;21.49;51.26
60725;BME280;59881;36.722;-4.462;2023-06-22T02:18:49;100854.41;;;21.47;51.05
60725;BME280;59881;36.722;-4.462;2023-06-22T02:21:19;100517.28;;;19.49;51.57
60725;BME280;59881;36.722;-4.462;2023-06-22T02:23:45;100299.31;;;18.05;51.73
60725;BME280;59881;36.722;-4.462;2023-06-22T02:26:11;100810.03;;;21.44;52.08
60725;BME280;59881;36.722;-4.462;2023-06-22T02:28:37;100449.81;;;18.79;51.88
60725;BME280;59881;36.722;-4.462;2023-06-22T02:31:03;99618.34;;;14.00;52.22
60725;BME280;59881;36.722;-4.462;2023-06-22T02:33:28;100749.81;;;20.75;52.50
60725;BME280;59881;36.722;-4.462;2023-06-22T02:35:54;100146.88;;;17.16;52.48
60725;BME280;59881;36.722;-4.462;2023-06-22T02:38:20;100407.56;;;18.32;52.85
60725;BME280;59881;36.722;-4.462;2023-06-22T02:40:46;100420.66;;;18.86;52.90
60725;BME280;59881;36.722;-4.462;2023-06-22T02:43:11;100819.06;;;21.27;53.35
60725;BME280;59881;36.722;-4.462;2023-06-22T02:45:37;100467.59;;;19.05;53.41
60725;BME280;59881;36.722;-4.462;2023-06-22T02:48:03;100652.75;;;19.64;53.33
60725;BME280;59881;36.722;-4.462;2023-06-22T02:50:28;100402.63;;;18.46;53.67
60725;BME280;59881;36.722;-4.462;2023-06-22T02:52:54;100361.84;;;18.19;53.89
60725;BME280;59881;36.722;-4.462;2023-06-22T02:55:20;100910.00;;;21.12;54.19
60725;BME280;59881;36.722;-4.462;2023-06-22T02:57:45;100639.41;;;19.30;54.70
60725;BME280;59881;36.722;-4.462;2023-06-22T03:00:14;100832.31;;;21.12;54.91
60725;BME280;59881;36.722;-4.462;2023-06-22T03:02:47;100875.19;;;21.12;55.11
60725;BME280;59881;36.722;-4.462;2023-06-22T03:05:14;100015.63;;;16.03;55.16
60725;BME280;59881;36.722;-4.462;2023-06-22T03:07:44;100517.06;;;18.83;55.22
60725;BME280;59881;36.722;-4.462;2023-06-22T03:10:10;100838.00;;;21.09;55.50
60725;BME280;59881;36.722;-4.462;2023-06-22T03:12:40;100827.78;;;21.04;55.61
60725;BME280;59881;36.722;-4.462;2023-06-22T03:15:07;100803.47;;;20.65;55.80
60725;BME280;59881;36.722;-4.462;2023-06-22T03:17:34;100826.94;;;21.04;56.04
60725;BME280;59881;36.722;-4.462;2023-06-22T03:20:00;100825.25;;;21.03;55.94
60725;BME280;59881;36.722;-4.462;2023-06-22T03:22:26;100659.72;;;20.00;55.84
60725;BME280;59881;36.722;-4.462;2023-06-22T03:24:51;100243.53;;;17.43;56.14
60725;BME280;59881;36.722;-4.462;2023-06-22T03:27:17;100787.09;;;20.76;56.36
60725;BME280;59881;36.722;-4.462;2023-06-22T03:29:43;100468.50;;;18.79;56.34
60725;BME280;59881;36.722;-4.462;2023-06-22T03:32:10;100828.44;;;20.98;56.49
60725;BME280;59881;36.722;-4.462;2023-06-22T03:34:35;100768.19;;;20.61;56.58
60725;BME280;59881;36.722;-4.462;2023-06-22T03:37:01;100832.81;;;20.99;56.44
60725;BME280;59881;36.722;-4.462;2023-06-22T03:39:28;100761.97;;;20.53;56.38
60725;BME280;59881;36.722;-4.462;2023-06-22T03:41:54;100898.72;;;20.92;56.84
60725;BME280;59881;36.722;-4.462;2023-06-22T03:44:19;100831.13;;;20.82;56.92
60725;BME280;59881;36.722;-4.462;2023-06-22T03:46:45;100843.00;;;20.87;57.10
60725;BME280;59881;36.722;-4.462;2023-06-22T03:49:10;100785.34;;;20.42;57.05
60725;BME280;59881;36.722;-4.462;2023-06-22T03:51:36;100549.81;;;18.93;57.46
60725;BME280;59881;36.722;-4.462;2023-06-22T03:54:01;100223.03;;;16.55;57.09
60725;BME280;59881;36.722;-4.462;2023-06-22T03:56:27;100564.44;;;18.63;57.68
60725;BME280;59881;36.722;-4.462;2023-06-22T03:58:52;100470.81;;;18.40;57.80
60725;BME280;59881;36.722;-4.462;2023-06-22T04:01:18;100629.78;;;19.37;58.15
60725;BME280;59881;36.722;-4.462;2023-06-22T04:03:44;100865.41;;;20.78;58.15
60725;BME280;59881;36.722;-4.462;2023-06-22T04:06:09;100858.69;;;20.74;58.06
60725;BME280;59881;36.722;-4.462;2023-06-22T04:08:35;100873.94;;;20.74;58.17
60725;BME280;59881;36.722;-4.462;2023-06-22T04:11:01;100826.97;;;20.37;58.39
60725;BME280;59881;36.722;-4.462;2023-06-22T04:13:26;100669.53;;;19.14;58.19
60725;BME280;59881;36.722;-4.462;2023-06-22T04:15:52;100688.16;;;18.98;58.51
60725;BME280;59881;36.722;-4.462;2023-06-22T04:18:17;100731.41;;;18.84;58.53
60725;BME280;59881;36.722;-4.462;2023-06-22T04:20:43;100825.63;;;19.64;58.43
60725;BME280;59881;36.722;-4.462;2023-06-22T04:23:12;100740.19;;;19.20;58.54
60725;BME280;59881;36.722;-4.462;2023-06-22T04:25:38;100605.28;;;18.55;59.44
60725;BME280;59881;36.722;-4.462;2023-06-22T04:28:03;100576.91;;;17.92;59.74
60725;BME280;59881;36.722;-4.462;2023-06-22T04:30:29;100626.66;;;18.64;59.36
60725;BME280;59881;36.722;-4.462;2023-06-22T04:32:57;100407.63;;;17.26;59.78
60725;BME280;59881;36.722;-4.462;2023-06-22T04:35:23;100919.09;;;20.34;60.02
60725;BME280;59881;36.722;-4.462;2023-06-22T04:37:49;100923.47;;;20.35;60.23
60725;BME280;59881;36.722;-4.462;2023-06-22T04:40:15;100672.44;;;18.77;60.87
60725;BME280;59881;36.722;-4.462;2023-06-22T04:42:40;100928.81;;;20.35;62.85
60725;BME280;59881;36.722;-4.462;2023-06-22T04:45:17;100927.94;;;20.26;64.51
60725;BME280;59881;36.722;-4.462;2023-06-22T04:47:43;100981.22;;;20.20;65.78
60725;BME280;59881;36.722;-4.462;2023-06-22T04:50:11;100734.75;;;18.86;67.11
60725;BME280;59881;36.722;-4.462;2023-06-22T04:52:37;100938.16;;;20.05;67.80
60725;BME280;59881;36.722;-4.462;2023-06-22T04:55:03;100945.00;;;19.99;68.60
60725;BME280;59881;36.722;-4.462;2023-06-22T04:57:29;100397.25;;;16.60;69.11
60725;BME280;59881;36.722;-4.462;2023-06-22T05:00:01;100671.13;;;18.19;69.53
60725;BME280;59881;36.722;-4.462;2023-06-22T05:02:39;100601.78;;;17.65;70.39
60725;BME280;59881;36.722;-4.462;2023-06-22T05:05:05;100946.47;;;19.94;70.57
60725;BME280;59881;36.722;-4.462;2023-06-22T05:07:35;100870.63;;;19.51;70.57
60725;BME280;59881;36.722;-4.462;2023-06-22T05:10:02;100884.50;;;19.54;69.72
60725;BME280;59881;36.722;-4.462;2023-06-22T05:12:28;100956.53;;;20.00;69.79
60725;BME280;59881;36.722;-4.462;2023-06-22T05:14:54;100913.94;;;19.80;69.21
60725;BME280;59881;36.722;-4.462;2023-06-22T05:17:20;100459.94;;;17.00;68.77
60725;BME280;59881;36.722;-4.462;2023-06-22T05:19:46;100725.13;;;18.75;68.34
60725;BME280;59881;36.722;-4.462;2023-06-22T05:22:15;100770.97;;;18.70;67.87
60725;BME280;59881;36.722;-4.462;2023-06-22T05:24:41;100671.19;;;18.63;67.33
60725;BME280;59881;36.722;-4.462;2023-06-22T05:27:08;100973.22;;;20.88;67.28
60725;BME280;59881;36.722;-4.462;2023-06-22T05:29:33;100850.66;;;20.74;65.42
60725;BME280;59881;36.722;-4.462;2023-06-22T05:31:59;100907.13;;;21.96;62.41
60725;BME280;59881;36.722;-4.462;2023-06-22T05:34:25;100624.28;;;20.88;59.52
60725;BME280;59881;36.722;-4.462;2023-06-22T05:36:51;100409.19;;;20.09;56.77
60725;BME280;59881;36.722;-4.462;2023-06-22T05:39:16;100924.50;;;23.49;55.04
60725;BME280;59881;36.722;-4.462;2023-06-22T05:41:42;100679.00;;;22.81;53.20
60725;BME280;59881;36.722;-4.462;2023-06-22T05:44:08;101008.34;;;25.39;51.01
60725;BME280;59881;36.722;-4.462;2023-06-22T05:46:34;100964.19;;;25.90;49.86
60725;BME280;59881;36.722;-4.462;2023-06-22T05:48:59;100973.06;;;26.47;48.42
60725;BME280;59881;36.722;-4.462;2023-06-22T05:51:25;100726.91;;;25.54;46.61
60725;BME280;59881;36.722;-4.462;2023-06-22T05:53:50;100645.59;;;25.64;44.98
60725;BME280;59881;36.722;-4.462;2023-06-22T05:56:16;100575.47;;;25.70;43.44
60725;BME280;59881;36.722;-4.462;2023-06-22T05:58:42;100665.25;;;26.06;42.08
60725;BME280;59881;36.722;-4.462;2023-06-22T06:01:08;100380.63;;;25.22;41.20
60725;BME280;59881;36.722;-4.462;2023-06-22T06:03:33;100466.56;;;25.78;40.13
60725;BME280;59881;36.722;-4.462;2023-06-22T06:05:59;100982.69;;;29.73;39.46
60725;BME280;59881;36.722;-4.462;2023-06-22T06:08:27;100962.25;;;30.14;38.26
60725;BME280;59881;36.722;-4.462;2023-06-22T06:10:53;100699.25;;;28.75;37.42
60725;BME280;59881;36.722;-4.462;2023-06-22T06:13:20;100579.06;;;27.88;37.08
60725;BME280;59881;36.722;-4.462;2023-06-22T06:15:45;100039.44;;;25.39;36.16
60725;BME280;59881;36.722;-4.462;2023-06-22T06:18:11;100767.50;;;30.26;35.14
60725;BME280;59881;36.722;-4.462;2023-06-22T06:20:37;100731.78;;;30.11;34.42
60725;BME280;59881;36.722;-4.462;2023-06-22T06:23:02;101030.69;;;31.64;34.95
60725;BME280;59881;36.722;-4.462;2023-06-22T06:25:28;101001.22;;;31.30;36.06
60725;BME280;59881;36.722;-4.462;2023-06-22T06:27:53;100789.59;;;30.18;35.81
60725;BME280;59881;36.722;-4.462;2023-06-22T06:30:20;100996.72;;;31.78;35.29
60725;BME280;59881;36.722;-4.462;2023-06-22T06:32:47;101002.78;;;32.04;34.60
60725;BME280;59881;36.722;-4.462;2023-06-22T06:35:14;100998.06;;;32.11;34.43
60725;BME280;59881;36.722;-4.462;2023-06-22T06:37:43;100731.97;;;30.58;33.66
60725;BME280;59881;36.722;-4.462;2023-06-22T06:40:10;100976.22;;;32.34;33.76
60725;BME280;59881;36.722;-4.462;2023-06-22T06:42:37;100754.97;;;31.45;33.07
60725;BME280;59881;36.722;-4.462;2023-06-22T06:45:06;101023.78;;;33.48;32.52
60725;BME280;59881;36.722;-4.462;2023-06-22T06:47:32;100743.22;;;32.08;31.44
60725;BME280;59881;36.722;-4.462;2023-06-22T06:49:57;100617.66;;;31.52;31.35
60725;BME280;59881;36.722;-4.462;2023-06-22T06:52:23;101006.97;;;34.24;31.63
60725;BME280;59881;36.722;-4.462;2023-06-22T06:54:48;100766.66;;;33.17;31.48
60725;BME280;59881;36.722;-4.462;2023-06-22T06:57:14;101025.78;;;34.81;30.47
60725;BME280;59881;36.722;-4.462;2023-06-22T06:59:40;101033.97;;;35.26;31.36
60725;BME280;59881;36.722;-4.462;2023-06-22T07:02:06;101015.94;;;35.62;31.72
60725;BME280;59881;36.722;-4.462;2023-06-22T07:04:32;100854.66;;;35.01;32.24
60725;BME280;59881;36.722;-4.462;2023-06-22T07:07:00;101025.22;;;36.31;31.76
60725;BME280;59881;36.722;-4.462;2023-06-22T07:09:26;101018.91;;;36.30;30.75
60725;BME280;59881;36.722;-4.462;2023-06-22T07:11:52;101038.06;;;36.67;30.28
60725;BME280;59881;36.722;-4.462;2023-06-22T07:14:17;101033.19;;;36.90;30.19
60725;BME280;59881;36.722;-4.462;2023-06-22T07:16:43;101028.00;;;37.04;29.27
60725;BME280;59881;36.722;-4.462;2023-06-22T07:19:11;101031.38;;;37.32;29.51
60725;BME280;59881;36.722;-4.462;2023-06-22T07:21:37;101004.19;;;37.35;29.22
60725;BME280;59881;36.722;-4.462;2023-06-22T07:24:04;101033.06;;;37.79;29.36
60725;BME280;59881;36.722;-4.462;2023-06-22T07:26:31;101029.22;;;37.95;28.85
60725;BME280;59881;36.722;-4.462;2023-06-22T07:28:57;100902.25;;;37.37;29.08
60725;BME280;59881;36.722;-4.462;2023-06-22T07:31:24;101021.69;;;38.42;29.17
60725;BME280;59881;36.722;-4.462;2023-06-22T07:33:50;101035.59;;;38.76;28.39
60725;BME280;59881;36.722;-4.462;2023-06-22T07:36:17;101045.66;;;39.01;28.14
60725;BME280;59881;36.722;-4.462;2023-06-22T07:38:42;100974.41;;;38.84;28.31
60725;BME280;59881;36.722;-4.462;2023-06-22T07:41:08;100968.31;;;38.98;27.32
60725;BME280;59881;36.722;-4.462;2023-06-22T07:43:34;101043.47;;;39.43;25.20
60725;BME280;59881;36.722;-4.462;2023-06-22T07:46:03;101032.13;;;39.49;25.71
60725;BME280;59881;36.722;-4.462;2023-06-22T07:48:28;101037.06;;;39.87;26.74
60725;BME280;59881;36.722;-4.462;2023-06-22T07:50:54;101040.97;;;40.10;25.45
60725;BME280;59881;36.722;-4.462;2023-06-22T07:53:21;101025.88;;;40.26;24.90
60725;BME280;59881;36.722;-4.462;2023-06-22T07:55:47;101043.19;;;40.37;24.05
60725;BME280;59881;36.722;-4.462;2023-06-22T07:58:13;101026.78;;;40.22;23.63
60725;BME280;59881;36.722;-4.462;2023-06-22T08:00:38;101032.63;;;39.91;23.58
60725;BME280;59881;36.722;-4.462;2023-06-22T08:03:04;101036.69;;;39.64;24.01
60725;BME280;59881;36.722;-4.462;2023-06-22T08:05:31;101030.50;;;40.07;24.91
60725;BME280;59881;36.722;-4.462;2023-06-22T08:07:57;101028.72;;;40.88;24.48
60725;BME280;59881;36.722;-4.462;2023-06-22T08:10:22;101038.38;;;41.29;25.27
60725;BME280;59881;36.722;-4.462;2023-06-22T08:12:48;100796.03;;;40.07;25.15
60725;BME280;59881;36.722;-4.462;2023-06-22T08:15:14;101061.75;;;41.18;22.56
60725;BME280;59881;36.722;-4.462;2023-06-22T08:17:40;101059.66;;;41.28;24.42
60725;BME280;59881;36.722;-4.462;2023-06-22T08:20:06;101030.75;;;41.59;24.78
60725;BME280;59881;36.722;-4.462;2023-06-22T08:22:37;101033.66;;;41.95;23.93
60725;BME280;59881;36.722;-4.462;2023-06-22T08:25:03;101012.28;;;42.01;22.15
60725;BME280;59881;36.722;-4.462;2023-06-22T08:27:30;100961.31;;;41.88;22.27
60725;BME280;59881;36.722;-4.462;2023-06-22T08:29:57;101027.69;;;42.48;22.36
60725;BME280;59881;36.722;-4.462;2023-06-22T08:32:27;100733.97;;;40.42;22.17
60725;BME280;59881;36.722;-4.462;2023-06-22T08:34:54;101002.84;;;41.55;22.03
60725;BME280;59881;36.722;-4.462;2023-06-22T08:37:20;101011.72;;;41.19;22.12
60725;BME280;59881;36.722;-4.462;2023-06-22T08:39:45;101021.34;;;41.41;22.01
60725;BME280;59881;36.722;-4.462;2023-06-22T08:42:12;100943.69;;;41.04;21.98
60725;BME280;59881;36.722;-4.462;2023-06-22T08:44:37;100984.06;;;41.85;21.49
60725;BME280;59881;36.722;-4.462;2023-06-22T08:47:03;100924.22;;;41.89;20.88
60725;BME280;59881;36.722;-4.462;2023-06-22T08:49:29;101077.50;;;42.62;20.71
60725;BME280;59881;36.722;-4.462;2023-06-22T08:51:54;101018.31;;;43.08;19.76
60725;BME280;59881;36.722;-4.462;2023-06-22T08:54:22;101017.59;;;43.39;20.10
60725;BME280;59881;36.722;-4.462;2023-06-22T08:56:47;100879.13;;;42.89;20.25
60725;BME280;59881;36.722;-4.462;2023-06-22T08:59:13;100986.38;;;43.25;19.65
60725;BME280;59881;36.722;-4.462;2023-06-22T09:01:38;100985.25;;;42.89;19.24
60725;BME280;59881;36.722;-4.462;2023-06-22T09:04:04;101039.56;;;41.23;21.82
60725;BME280;59881;36.722;-4.462;2023-06-22T09:06:31;100773.16;;;37.32;25.09
60725;BME280;59881;36.722;-4.462;2023-06-22T09:08:57;101008.88;;;37.81;26.71
60725;BME280;59881;36.722;-4.462;2023-06-22T09:11:25;100981.06;;;37.05;27.23
60725;BME280;59881;36.722;-4.462;2023-06-22T09:13:50;100991.69;;;36.71;28.41
60725;BME280;59881;36.722;-4.462;2023-06-22T09:16:17;101055.16;;;36.95;28.53
60725;BME280;59881;36.722;-4.462;2023-06-22T09:18:46;100906.91;;;35.64;28.64
60725;BME280;59881;36.722;-4.462;2023-06-22T09:21:12;101069.13;;;36.83;29.47
60725;BME280;59881;36.722;-4.462;2023-06-22T09:23:37;100726.28;;;34.62;29.89
60725;BME280;59881;36.722;-4.462;2023-06-22T09:26:03;101023.75;;;36.13;29.83
60725;BME280;59881;36.722;-4.462;2023-06-22T09:28:29;101072.97;;;36.30;30.09
60725;BME280;59881;36.722;-4.462;2023-06-22T09:30:54;100988.41;;;35.47;30.97
60725;BME280;59881;36.722;-4.462;2023-06-22T09:33:24;101005.72;;;35.52;30.75
60725;BME280;59881;36.722;-4.462;2023-06-22T09:35:49;100718.72;;;34.15;30.09
60725;BME280;59881;36.722;-4.462;2023-06-22T09:38:16;100828.63;;;34.98;30.41
60725;BME280;59881;36.722;-4.462;2023-06-22T09:40:42;100901.31;;;35.91;29.72
60725;BME280;59881;36.722;-4.462;2023-06-22T09:43:07;100622.13;;;34.36;29.27
60725;BME280;59881;36.722;-4.462;2023-06-22T09:45:33;100893.94;;;35.97;29.15
60725;BME280;59881;36.722;-4.462;2023-06-22T09:47:58;101076.25;;;36.79;29.82
60725;BME280;59881;36.722;-4.462;2023-06-22T09:50:24;100958.16;;;36.06;29.78
60725;BME280;59881;36.722;-4.462;2023-06-22T09:52:49;101077.34;;;36.78;29.71
60725;BME280;59881;36.722;-4.462;2023-06-22T09:55:20;101073.94;;;37.14;29.36
60725;BME280;59881;36.722;-4.462;2023-06-22T09:57:46;101134.75;;;37.63;28.86
60725;BME280;59881;36.722;-4.462;2023-06-22T10:00:12;100623.72;;;35.22;28.02
60725;BME280;59881;36.722;-4.462;2023-06-22T10:02:44;101079.50;;;38.01;28.37
60725;BME280;59881;36.722;-4.462;2023-06-22T10:05:10;101075.34;;;37.26;29.11
60725;BME280;59881;36.722;-4.462;2023-06-22T10:07:36;101105.03;;;37.40;29.14
60725;BME280;59881;36.722;-4.462;2023-06-22T10:10:08;101014.34;;;37.30;28.90
60725;BME280;59881;36.722;-4.462;2023-06-22T10:12:34;100754.53;;;35.58;28.73
60725;BME280;59881;36.722;-4.462;2023-06-22T10:14:59;101082.25;;;37.85;28.62
60725;BME280;59881;36.722;-4.462;2023-06-22T10:17:25;100837.66;;;36.57;28.62
60725;BME280;59881;36.722;-4.462;2023-06-22T10:19:50;101074.50;;;38.39;28.32
60725;BME280;59881;36.722;-4.462;2023-06-22T10:22:16;100752.88;;;36.35;28.19
60725;BME280;59881;36.722;-4.462;2023-06-22T10:24:42;101079.59;;;38.86;27.73
60725;BME280;59881;36.722;-4.462;2023-06-22T10:27:11;101121.41;;;38.99;27.74
60725;BME280;59881;36.722;-4.462;2023-06-22T10:29:37;100918.47;;;37.69;27.55
60725;BME280;59881;36.722;-4.462;2023-06-22T10:32:03;101075.38;;;39.09;27.42
60725;BME280;59881;36.722;-4.462;2023-06-22T10:34:28;101072.50;;;38.75;27.92
60725;BME280;59881;36.722;-4.462;2023-06-22T10:36:54;100861.63;;;37.23;27.81
60725;BME280;59881;36.722;-4.462;2023-06-22T10:39:19;100983.31;;;37.70;28.06
60725;BME280;59881;36.722;-4.462;2023-06-22T10:41:45;100552.41;;;34.01;29.11
60725;BME280;59881;36.722;-4.462;2023-06-22T10:44:11;100522.78;;;31.32;32.24
60725;BME280;59881;36.722;-4.462;2023-06-22T10:46:37;100977.50;;;31.61;35.87
60725;BME280;59881;36.722;-4.462;2023-06-22T10:49:03;101107.00;;;30.71;39.37
60725;BME280;59881;36.722;-4.462;2023-06-22T10:51:30;101115.06;;;29.78;41.22
60725;BME280;59881;36.722;-4.462;2023-06-22T10:53:56;101109.44;;;29.41;41.48
60725;BME280;59881;36.722;-4.462;2023-06-22T10:56:22;101189.03;;;29.08;42.41
60725;BME280;59881;36.722;-4.462;2023-06-22T10:58:47;100811.06;;;26.87;43.38
60725;BME280;59881;36.722;-4.462;2023-06-22T11:01:13;101118.47;;;28.50;43.34
60725;BME280;59881;36.722;-4.462;2023-06-22T11:03:39;101061.28;;;27.64;43.93
60725;BME280;59881;36.722;-4.462;2023-06-22T11:06:04;100892.59;;;26.91;44.28
60725;BME280;59881;36.722;-4.462;2023-06-22T11:08:30;101113.59;;;28.45;43.94
60725;BME280;59881;36.722;-4.462;2023-06-22T11:10:55;101117.19;;;28.39;43.32
60725;BME280;59881;36.722;-4.462;2023-06-22T11:13:21;101123.84;;;28.43;43.74
60725;BME280;59881;36.722;-4.462;2023-06-22T11:15:46;100953.63;;;27.33;43.63
60725;BME280;59881;36.722;-4.462;2023-06-22T11:18:12;101122.81;;;28.51;43.57
60725;BME280;59881;36.722;-4.462;2023-06-22T11:20:37;101078.84;;;28.48;43.43
60725;BME280;59881;36.722;-4.462;2023-06-22T11:23:06;101114.44;;;28.72;44.02
60725;BME280;59881;36.722;-4.462;2023-06-22T11:25:32;100959.69;;;27.42;44.31
60725;BME280;59881;36.722;-4.462;2023-06-22T11:28:02;100730.31;;;26.24;44.69
60725;BME280;59881;36.722;-4.462;2023-06-22T11:30:28;101054.47;;;28.22;44.61
60725;BME280;59881;36.722;-4.462;2023-06-22T11:32:53;100956.78;;;27.50;44.66
60725;BME280;59881;36.722;-4.462;2023-06-22T11:35:19;101164.25;;;28.18;45.32
60725;BME280;59881;36.722;-4.462;2023-06-22T11:37:44;100971.31;;;27.22;45.73
60725;BME280;59881;36.722;-4.462;2023-06-22T11:40:10;101112.16;;;28.09;45.68
60725;BME280;59881;36.722;-4.462;2023-06-22T11:42:36;101159.81;;;27.83;46.17
60725;BME280;59881;36.722;-4.462;2023-06-22T11:45:02;101105.38;;;27.58;47.15
60725;BME280;59881;36.722;-4.462;2023-06-22T11:47:29;101115.41;;;27.64;47.10
60725;BME280;59881;36.722;-4.462;2023-06-22T11:49:55;101107.91;;;27.60;47.22
60725;BME280;59881;36.722;-4.462;2023-06-22T11:52:21;100721.56;;;25.26;47.08
60725;BME280;59881;36.722;-4.462;2023-06-22T11:54:46;101029.94;;;27.15;47.59
60725;BME280;59881;36.722;-4.462;2023-06-22T11:57:12;101038.00;;;27.09;48.23
60725;BME280;59881;36.722;-4.462;2023-06-22T11:59:38;100656.38;;;24.59;48.16
60725;BME280;59881;36.722;-4.462;2023-06-22T12:02:03;101027.16;;;26.95;48.30
60725;BME280;59881;36.722;-4.462;2023-06-22T12:04:30;101131.38;;;27.46;48.69
60725;BME280;59881;36.722;-4.462;2023-06-22T12:06:56;100897.09;;;26.22;48.26
60725;BME280;59881;36.722;-4.462;2023-06-22T12:09:21;100919.41;;;26.37;48.34
60725;BME280;59881;36.722;-4.462;2023-06-22T12:11:47;101106.88;;;27.13;48.74
60725;BME280;59881;36.722;-4.462;2023-06-22T12:14:12;101107.84;;;27.40;48.38
60725;BME280;59881;36.722;-4.462;2023-06-22T12:16:38;100874.75;;;25.44;49.22
60725;BME280;59881;36.722;-4.462;2023-06-22T12:19:03;101112.28;;;27.13;49.05
60725;BME280;59881;36.722;-4.462;2023-06-22T12:21:29;100867.16;;;25.54;50.03
60725;BME280;59881;36.722;-4.462;2023-06-22T12:23:54;100935.78;;;25.45;50.17
60725;BME280;59881;36.722;-4.462;2023-06-22T12:26:20;100804.06;;;24.77;50.92
60725;BME280;59881;36.722;-4.462;2023-06-22T12:28:47;100935.88;;;25.58;50.79
60725;BME280;59881;36.722;-4.462;2023-06-22T12:31:13;100634.84;;;23.58;51.07
60725;BME280;59881;36.722;-4.462;2023-06-22T12:33:39;101160.69;;;26.23;51.24
60725;BME280;59881;36.722;-4.462;2023-06-22T12:36:05;101039.22;;;25.80;51.36
60725;BME280;59881;36.722;-4.462;2023-06-22T12:38:30;100916.38;;;24.76;51.22
60725;BME280;59881;36.722;-4.462;2023-06-22T12:40:56;100684.53;;;23.77;50.45
60725;BME280;59881;36.722;-4.462;2023-06-22T12:43:21;100399.19;;;21.97;50.31
60725;BME280;59881;36.722;-4.462;2023-06-22T12:45:47;100795.16;;;24.55;50.31
60725;BME280;59881;36.722;-4.462;2023-06-22T12:48:12;100827.94;;;24.80;50.13
60725;BME280;59881;36.722;-4.462;2023-06-22T12:50:38;101044.88;;;26.07;49.75
60725;BME280;59881;36.722;-4.462;2023-06-22T12:53:03;101152.63;;;26.51;49.88
60725;BME280;59881;36.722;-4.462;2023-06-22T12:55:31;100708.78;;;23.99;50.83
60725;BME280;59881;36.722;-4.462;2023-06-22T12:57:57;100628.84;;;23.26;51.84
60725;BME280;59881;36.722;-4.462;2023-06-22T13:00:23;100718.66;;;23.91;51.79
60725;BME280;59881;36.722;-4.462;2023-06-22T13:02:48;100093.34;;;20.03;51.84
60725;BME280;59881;36.722;-4.462;2023-06-22T13:05:14;101114.19;;;26.28;51.20
60725;BME280;59881;36.722;-4.462;2023-06-22T13:07:39;100832.28;;;24.60;51.14
60725;BME280;59881;36.722;-4.462;2023-06-22T13:10:05;100757.41;;;23.67;51.85
60725;BME280;59881;36.722;-4.462;2023-06-22T13:12:31;100630.22;;;22.92;52.46
60725;BME280;59881;36.722;-4.462;2023-06-22T13:14:56;101119.53;;;25.93;52.26
60725;BME280;59881;36.722;-4.462;2023-06-22T13:17:22;101097.53;;;25.96;53.04
60725;BME280;59881;36.722;-4.462;2023-06-22T13:19:47;100768.09;;;23.90;53.60
60725;BME280;59881;36.722;-4.462;2023-06-22T13:22:33;101098.56;;;25.95;53.27
60725;BME280;59881;36.722;-4.462;2023-06-22T13:25:05;100889.34;;;24.33;53.53
60725;BME280;59881;36.722;-4.462;2023-06-22T13:27:31;100458.09;;;21.90;54.08
60725;BME280;59881;36.722;-4.462;2023-06-22T13:29:57;101179.25;;;25.90;54.47
60725;BME280;59881;36.722;-4.462;2023-06-22T13:32:22;100527.13;;;22.49;54.01
60725;BME280;59881;36.722;-4.462;2023-06-22T13:34:48;101039.91;;;25.09;54.66
60725;BME280;59881;36.722;-4.462;2023-06-22T13:37:13;100642.63;;;22.79;54.45
60725;BME280;59881;36.722;-4.462;2023-06-22T13:39:39;100931.81;;;24.83;54.35
60725;BME280;59881;36.722;-4.462;2023-06-22T13:42:05;100889.25;;;24.27;54.96
60725;BME280;59881;36.722;-4.462;2023-06-22T13:44:30;100874.53;;;24.44;55.26
60725;BME280;59881;36.722;-4.462;2023-06-22T13:46:56;100904.75;;;24.25;55.34
60725;BME280;59881;36.722;-4.462;2023-06-22T13:49:21;101001.13;;;25.25;55.46
60725;BME280;59881;36.722;-4.462;2023-06-22T13:51:47;101081.81;;;25.85;54.03
60725;BME280;59881;36.722;-4.462;2023-06-22T13:54:16;101091.09;;;25.75;52.15